sensor_id;sensor_type;location;lat;lon;timestamp;pressure;altitude;pressure_sealevel;temperature
72278;BMP280;61204;49.980;8.358;2022-12-07T00:01:46;100788.09;;;3.31
72278;BMP280;61204;49.980;8.358;2022-12-07T00:04:15;100782.88;;;3.33
72278;BMP280;61204;49.980;8.358;2022-12-07T00:06:45;100778.00;;;3.31
72278;BMP280;61204;49.980;8.358;2022-12-07T00:09:16;100787.41;;;3.43
72278;BMP280;61204;49.980;8.358;2022-12-07T00:11:44;100785.44;;;3.44
72278;BMP280;61204;49.980;8.358;2022-12-07T00:14:14;100770.53;;;3.37
72278;BMP280;61204;49.980;8.358;2022-12-07T00:16:41;100778.66;;;3.37
72278;BMP280;61204;49.980;8.358;2022-12-07T00:19:10;100771.97;;;3.38
72278;BMP280;61204;49.980;8.358;2022-12-07T00:21:38;100776.13;;;3.39
72278;BMP280;61204;49.980;8.358;2022-12-07T00:24:04;100768.53;;;3.38
72278;BMP280;61204;49.980;8.358;2022-12-07T00:26:33;100764.16;;;3.35
72278;BMP280;61204;49.980;8.358;2022-12-07T00:29:11;100763.31;;;3.40
72278;BMP280;61204;49.980;8.358;2022-12-07T00:31:42;100759.16;;;3.39
72278;BMP280;61204;49.980;8.358;2022-12-07T00:34:13;100756.66;;;3.41
72278;BMP280;61204;49.980;8.358;2022-12-07T00:36:41;100757.41;;;3.41
72278;BMP280;61204;49.980;8.358;2022-12-07T00:39:07;100751.25;;;3.41
72278;BMP280;61204;49.980;8.358;2022-12-07T00:41:34;100744.34;;;3.40
72278;BMP280;61204;49.980;8.358;2022-12-07T00:43:59;100744.44;;;3.34
72278;BMP280;61204;49.980;8.358;2022-12-07T00:46:25;100731.91;;;3.31
72278;BMP280;61204;49.980;8.358;2022-12-07T00:48:52;100729.94;;;3.32
72278;BMP280;61204;49.980;8.358;2022-12-07T00:51:21;100731.09;;;3.36
72278;BMP280;61204;49.980;8.358;2022-12-07T00:53:50;100722.88;;;3.42
72278;BMP280;61204;49.980;8.358;2022-12-07T00:56:22;100717.88;;;3.46
72278;BMP280;61204;49.980;8.358;2022-12-07T00:58:55;100728.50;;;3.44
72278;BMP280;61204;49.980;8.358;2022-12-07T01:01:25;100723.59;;;3.42
72278;BMP280;61204;49.980;8.358;2022-12-07T01:03:54;100738.41;;;3.41
72278;BMP280;61204;49.980;8.358;2022-12-07T01:06:22;100745.25;;;3.29
72278;BMP280;61204;49.980;8.358;2022-12-07T01:08:50;100741.50;;;3.32
72278;BMP280;61204;49.980;8.358;2022-12-07T01:11:22;100742.97;;;3.20
72278;BMP280;61204;49.980;8.358;2022-12-07T01:13:53;100738.13;;;3.13
72278;BMP280;61204;49.980;8.358;2022-12-07T01:16:22;100743.66;;;3.07
72278;BMP280;61204;49.980;8.358;2022-12-07T01:18:51;100733.84;;;3.04
72278;BMP280;61204;49.980;8.358;2022-12-07T01:21:25;100727.78;;;2.98
72278;BMP280;61204;49.980;8.358;2022-12-07T01:23:57;100731.00;;;2.96
72278;BMP280;61204;49.980;8.358;2022-12-07T01:26:24;100722.88;;;2.96
72278;BMP280;61204;49.980;8.358;2022-12-07T01:28:51;100727.16;;;2.92
72278;BMP280;61204;49.980;8.358;2022-12-07T01:31:21;100722.25;;;2.90
72278;BMP280;61204;49.980;8.358;2022-12-07T01:33:53;100725.91;;;2.93
72278;BMP280;61204;49.980;8.358;2022-12-07T01:36:24;100725.91;;;2.93
72278;BMP280;61204;49.980;8.358;2022-12-07T01:39:01;100733.72;;;2.96
72278;BMP280;61204;49.980;8.358;2022-12-07T01:41:33;100735.91;;;2.98
72278;BMP280;61204;49.980;8.358;2022-12-07T01:44:21;100731.19;;;2.98
72278;BMP280;61204;49.980;8.358;2022-12-07T01:46:54;100741.31;;;2.98
72278;BMP280;61204;49.980;8.358;2022-12-07T01:49:31;100738.59;;;2.98
72278;BMP280;61204;49.980;8.358;2022-12-07T01:52:20;100737.88;;;2.97
72278;BMP280;61204;49.980;8.358;2022-12-07T01:54:55;100721.63;;;2.97
72278;BMP280;61204;49.980;8.358;2022-12-07T01:57:33;100723.59;;;2.97
72278;BMP280;61204;49.980;8.358;2022-12-07T02:00:05;100715.06;;;2.93
72278;BMP280;61204;49.980;8.358;2022-12-07T02:02:36;100712.38;;;2.93
72278;BMP280;61204;49.980;8.358;2022-12-07T02:05:11;100719.78;;;2.92
72278;BMP280;61204;49.980;8.358;2022-12-07T02:07:38;100720.50;;;2.93
72278;BMP280;61204;49.980;8.358;2022-12-07T02:10:15;100717.25;;;2.94
72278;BMP280;61204;49.980;8.358;2022-12-07T02:12:52;100716.44;;;3.00
72278;BMP280;61204;49.980;8.358;2022-12-07T02:25:24;100701.97;;;3.10
72278;BMP280;61204;49.980;8.358;2022-12-07T02:28:33;100706.66;;;3.10
72278;BMP280;61204;49.980;8.358;2022-12-07T02:31:08;100705.19;;;3.09
72278;BMP280;61204;49.980;8.358;2022-12-07T02:33:54;100699.06;;;3.08
72278;BMP280;61204;49.980;8.358;2022-12-07T02:36:46;100704.91;;;3.12
72278;BMP280;61204;49.980;8.358;2022-12-07T02:39:34;100702.91;;;3.13
72278;BMP280;61204;49.980;8.358;2022-12-07T02:42:15;100698.97;;;3.14
72278;BMP280;61204;49.980;8.358;2022-12-07T02:44:50;100700.34;;;3.20
72278;BMP280;61204;49.980;8.358;2022-12-07T02:47:18;100697.72;;;3.15
72278;BMP280;61204;49.980;8.358;2022-12-07T02:49:50;100699.25;;;3.10
72278;BMP280;61204;49.980;8.358;2022-12-07T02:52:17;100681.53;;;3.09
72278;BMP280;61204;49.980;8.358;2022-12-07T02:54:43;100692.63;;;3.11
72278;BMP280;61204;49.980;8.358;2022-12-07T03:00:25;100681.03;;;3.11
72278;BMP280;61204;49.980;8.358;2022-12-07T03:02:55;100683.75;;;3.11
72278;BMP280;61204;49.980;8.358;2022-12-07T03:11:13;100689.38;;;3.13
72278;BMP280;61204;49.980;8.358;2022-12-07T03:14:27;100680.75;;;3.14
72278;BMP280;61204;49.980;8.358;2022-12-07T03:17:11;100680.75;;;3.14
72278;BMP280;61204;49.980;8.358;2022-12-07T03:19:42;100675.81;;;3.13
72278;BMP280;61204;49.980;8.358;2022-12-07T03:22:13;100677.09;;;3.12
72278;BMP280;61204;49.980;8.358;2022-12-07T03:25:04;100683.94;;;3.13
72278;BMP280;61204;49.980;8.358;2022-12-07T03:27:45;100670.94;;;3.11
72278;BMP280;61204;49.980;8.358;2022-12-07T03:30:19;100676.13;;;3.09
72278;BMP280;61204;49.980;8.358;2022-12-07T03:33:00;100675.41;;;3.09
72278;BMP280;61204;49.980;8.358;2022-12-07T03:35:43;100670.50;;;3.07
72278;BMP280;61204;49.980;8.358;2022-12-07T03:38:48;100665.09;;;3.07
72278;BMP280;61204;49.980;8.358;2022-12-07T03:41:47;100677.81;;;3.12
72278;BMP280;61204;49.980;8.358;2022-12-07T03:44:15;100679.25;;;3.13
72278;BMP280;61204;49.980;8.358;2022-12-07T03:47:01;100668.84;;;3.17
72278;BMP280;61204;49.980;8.358;2022-12-07T03:52:35;100670.94;;;3.25
72278;BMP280;61204;49.980;8.358;2022-12-07T03:55:25;100673.13;;;3.26
72278;BMP280;61204;49.980;8.358;2022-12-07T03:58:00;100666.22;;;3.25
72278;BMP280;61204;49.980;8.358;2022-12-07T04:00:31;100666.97;;;3.26
72278;BMP280;61204;49.980;8.358;2022-12-07T04:02:57;100664.47;;;3.28
72278;BMP280;61204;49.980;8.358;2022-12-07T04:05:23;100664.91;;;3.32
72278;BMP280;61204;49.980;8.358;2022-12-07T04:07:49;100662.94;;;3.45
72278;BMP280;61204;49.980;8.358;2022-12-07T04:10:15;100661.69;;;3.46
72278;BMP280;61204;49.980;8.358;2022-12-07T04:12:41;100665.84;;;3.47
72278;BMP280;61204;49.980;8.358;2022-12-07T04:15:07;100660.31;;;3.53
72278;BMP280;61204;49.980;8.358;2022-12-07T04:17:33;100665.94;;;3.55
72278;BMP280;61204;49.980;8.358;2022-12-07T04:19:59;100660.00;;;3.57
72278;BMP280;61204;49.980;8.358;2022-12-07T04:22:25;100665.44;;;3.57
72278;BMP280;61204;49.980;8.358;2022-12-07T04:24:50;100667.41;;;3.56
72278;BMP280;61204;49.980;8.358;2022-12-07T04:27:16;100667.91;;;3.55
72278;BMP280;61204;49.980;8.358;2022-12-07T04:29:41;100663.53;;;3.52
72278;BMP280;61204;49.980;8.358;2022-12-07T04:32:07;100668.94;;;3.52
72278;BMP280;61204;49.980;8.358;2022-12-07T04:34:33;100665.50;;;3.51
72278;BMP280;61204;49.980;8.358;2022-12-07T04:36:58;100671.66;;;3.52
72278;BMP280;61204;49.980;8.358;2022-12-07T04:39:30;100666.81;;;3.50
72278;BMP280;61204;49.980;8.358;2022-12-07T04:41:58;100656.66;;;3.51
72278;BMP280;61204;49.980;8.358;2022-12-07T04:44:25;100660.66;;;3.50
72278;BMP280;61204;49.980;8.358;2022-12-07T04:46:54;100659.91;;;3.49
72278;BMP280;61204;49.980;8.358;2022-12-07T04:49:21;100653.78;;;3.48
72278;BMP280;61204;49.980;8.358;2022-12-07T04:51:47;100653.94;;;3.51
72278;BMP280;61204;49.980;8.358;2022-12-07T04:54:13;100655.22;;;3.50
72278;BMP280;61204;49.980;8.358;2022-12-07T04:56:41;100651.78;;;3.49
72278;BMP280;61204;49.980;8.358;2022-12-07T04:59:10;100655.72;;;3.48
72278;BMP280;61204;49.980;8.358;2022-12-07T05:01:37;100653.78;;;3.48
72278;BMP280;61204;49.980;8.358;2022-12-07T05:04:05;100659.19;;;3.48
72278;BMP280;61204;49.980;8.358;2022-12-07T05:06:32;100653.94;;;3.51
72278;BMP280;61204;49.980;8.358;2022-12-07T05:08:57;100652.91;;;3.54
72278;BMP280;61204;49.980;8.358;2022-12-07T05:11:23;100652.19;;;3.53
72278;BMP280;61204;49.980;8.358;2022-12-07T05:14:18;100653.09;;;3.56
72278;BMP280;61204;49.980;8.358;2022-12-07T05:16:47;100642.47;;;3.58
72278;BMP280;61204;49.980;8.358;2022-12-07T05:19:17;100661.34;;;3.63
72278;BMP280;61204;49.980;8.358;2022-12-07T05:21:44;100655.28;;;3.70
72278;BMP280;61204;49.980;8.358;2022-12-07T05:24:11;100646.81;;;3.87
72278;BMP280;61204;49.980;8.358;2022-12-07T05:26:40;100649.63;;;3.95
72278;BMP280;61204;49.980;8.358;2022-12-07T05:29:06;100643.22;;;4.06
72278;BMP280;61204;49.980;8.358;2022-12-07T05:31:33;100643.72;;;4.17
72278;BMP280;61204;49.980;8.358;2022-12-07T05:33:59;100648.25;;;4.36
72278;BMP280;61204;49.980;8.358;2022-12-07T05:36:24;100646.81;;;4.42
72278;BMP280;61204;49.980;8.358;2022-12-07T05:38:50;100646.81;;;4.42
72278;BMP280;61204;49.980;8.358;2022-12-07T05:41:18;100648.09;;;4.41
72278;BMP280;61204;49.980;8.358;2022-12-07T05:44:03;100650.97;;;4.57
72278;BMP280;61204;49.980;8.358;2022-12-07T05:46:29;100648.59;;;4.61
72278;BMP280;61204;49.980;8.358;2022-12-07T05:48:55;100651.00;;;4.64
72278;BMP280;61204;49.980;8.358;2022-12-07T05:51:21;100650.41;;;4.79
72278;BMP280;61204;49.980;8.358;2022-12-07T05:53:47;100646.69;;;4.69
72278;BMP280;61204;49.980;8.358;2022-12-07T05:56:13;100648.50;;;4.66
72278;BMP280;61204;49.980;8.358;2022-12-07T05:58:39;100646.63;;;4.61
72278;BMP280;61204;49.980;8.358;2022-12-07T06:01:23;100642.19;;;4.71
72278;BMP280;61204;49.980;8.358;2022-12-07T06:03:49;100645.69;;;4.80
72278;BMP280;61204;49.980;8.358;2022-12-07T06:06:15;100645.16;;;4.81
72278;BMP280;61204;49.980;8.358;2022-12-07T06:08:40;100640.94;;;4.72
72278;BMP280;61204;49.980;8.358;2022-12-07T06:11:06;100646.22;;;4.78
72278;BMP280;61204;49.980;8.358;2022-12-07T06:13:50;100642.00;;;4.69
72278;BMP280;61204;49.980;8.358;2022-12-07T06:16:15;100637.88;;;4.76
72278;BMP280;61204;49.980;8.358;2022-12-07T06:18:41;100639.09;;;4.67
72278;BMP280;61204;49.980;8.358;2022-12-07T06:21:06;100643.13;;;4.74
72278;BMP280;61204;49.980;8.358;2022-12-07T06:23:32;100643.88;;;4.74
72278;BMP280;61204;49.980;8.358;2022-12-07T06:25:57;100635.19;;;4.76
72278;BMP280;61204;49.980;8.358;2022-12-07T06:28:23;100644.38;;;4.73
72278;BMP280;61204;49.980;8.358;2022-12-07T06:30:57;100642.19;;;4.71
72278;BMP280;61204;49.980;8.358;2022-12-07T06:33:24;100642.84;;;4.64
72278;BMP280;61204;49.980;8.358;2022-12-07T06:35:50;100638.28;;;4.59
72278;BMP280;61204;49.980;8.358;2022-12-07T06:38:16;100642.53;;;4.68
72278;BMP280;61204;49.980;8.358;2022-12-07T06:40:42;100640.34;;;4.66
72278;BMP280;61204;49.980;8.358;2022-12-07T06:43:07;100648.06;;;4.83
72278;BMP280;61204;49.980;8.358;2022-12-07T06:45:33;100643.19;;;4.82
72278;BMP280;61204;49.980;8.358;2022-12-07T06:47:58;100642.06;;;4.77
72278;BMP280;61204;49.980;8.358;2022-12-07T06:50:24;100646.81;;;4.84
72278;BMP280;61204;49.980;8.358;2022-12-07T06:52:51;100640.22;;;4.72
72278;BMP280;61204;49.980;8.358;2022-12-07T06:55:17;100643.47;;;4.70
72278;BMP280;61204;49.980;8.358;2022-12-07T06:57:43;100645.06;;;4.66
72278;BMP280;61204;49.980;8.358;2022-12-07T07:00:09;100642.25;;;4.79
72278;BMP280;61204;49.980;8.358;2022-12-07T07:02:36;100643.47;;;4.70
72278;BMP280;61204;49.980;8.358;2022-12-07T07:05:02;100645.97;;;4.68
72278;BMP280;61204;49.980;8.358;2022-12-07T07:07:28;100657.47;;;4.61
72278;BMP280;61204;49.980;8.358;2022-12-07T07:09:54;100645.53;;;4.57
72278;BMP280;61204;49.980;8.358;2022-12-07T07:12:19;100649.41;;;4.69
72278;BMP280;61204;49.980;8.358;2022-12-07T07:14:45;100658.59;;;4.58
72278;BMP280;61204;49.980;8.358;2022-12-07T07:17:11;100661.13;;;4.64
72278;BMP280;61204;49.980;8.358;2022-12-07T07:19:36;100666.31;;;4.54
72278;BMP280;61204;49.980;8.358;2022-12-07T07:22:03;100671.88;;;4.48
72278;BMP280;61204;49.980;8.358;2022-12-07T07:24:28;100666.44;;;4.69
72278;BMP280;61204;49.980;8.358;2022-12-07T07:26:54;100675.78;;;4.61
72278;BMP280;61204;49.980;8.358;2022-12-07T07:29:20;100670.09;;;4.51
72278;BMP280;61204;49.980;8.358;2022-12-07T07:31:46;100670.75;;;4.44
72278;BMP280;61204;49.980;8.358;2022-12-07T07:34:11;100675.44;;;4.43
72278;BMP280;61204;49.980;8.358;2022-12-07T07:36:37;100671.59;;;4.39
72278;BMP280;61204;49.980;8.358;2022-12-07T07:39:03;100679.22;;;4.40
72278;BMP280;61204;49.980;8.358;2022-12-07T07:41:30;100673.06;;;4.40
72278;BMP280;61204;49.980;8.358;2022-12-07T07:43:56;100682.34;;;4.44
72278;BMP280;61204;49.980;8.358;2022-12-07T07:46:22;100675.63;;;4.45
72278;BMP280;61204;49.980;8.358;2022-12-07T07:48:47;100676.97;;;4.52
72278;BMP280;61204;49.980;8.358;2022-12-07T07:51:13;100683.88;;;4.53
72278;BMP280;61204;49.980;8.358;2022-12-07T07:53:39;100686.97;;;4.57
72278;BMP280;61204;49.980;8.358;2022-12-07T07:56:04;100680.69;;;4.62
72278;BMP280;61204;49.980;8.358;2022-12-07T07:58:30;100683.06;;;4.87
72278;BMP280;61204;49.980;8.358;2022-12-07T08:00:56;100688.38;;;4.92
72278;BMP280;61204;49.980;8.358;2022-12-07T08:03:21;100685.13;;;4.94
72278;BMP280;61204;49.980;8.358;2022-12-07T08:05:47;100690.25;;;5.05
72278;BMP280;61204;49.980;8.358;2022-12-07T08:08:12;100691.09;;;4.92
72278;BMP280;61204;49.980;8.358;2022-12-07T08:10:38;100692.88;;;4.90
72278;BMP280;61204;49.980;8.358;2022-12-07T08:13:04;100684.22;;;4.99
72278;BMP280;61204;49.980;8.358;2022-12-07T08:15:36;100689.28;;;4.95
72278;BMP280;61204;49.980;8.358;2022-12-07T08:18:04;100686.72;;;4.89
72278;BMP280;61204;49.980;8.358;2022-12-07T08:20:31;100685.66;;;4.92
72278;BMP280;61204;49.980;8.358;2022-12-07T08:23:00;100682.72;;;4.90
72278;BMP280;61204;49.980;8.358;2022-12-07T08:25:26;100684.13;;;4.84
72278;BMP280;61204;49.980;8.358;2022-12-07T08:27:52;100681.94;;;4.82
72278;BMP280;61204;49.980;8.358;2022-12-07T08:30:19;100685.38;;;4.83
72278;BMP280;61204;49.980;8.358;2022-12-07T08:32:46;100691.03;;;4.85
72278;BMP280;61204;49.980;8.358;2022-12-07T08:35:13;100686.44;;;4.80
72278;BMP280;61204;49.980;8.358;2022-12-07T08:37:40;100687.88;;;4.81
72278;BMP280;61204;49.980;8.358;2022-12-07T08:40:08;100684.00;;;4.89
72278;BMP280;61204;49.980;8.358;2022-12-07T08:42:35;100689.88;;;4.80
72278;BMP280;61204;49.980;8.358;2022-12-07T08:45:15;100689.69;;;4.78
72278;BMP280;61204;49.980;8.358;2022-12-07T08:47:55;100694.53;;;4.72
72278;BMP280;61204;49.980;8.358;2022-12-07T08:50:29;100691.41;;;4.68
72278;BMP280;61204;49.980;8.358;2022-12-07T08:52:58;100696.84;;;4.68
72278;BMP280;61204;49.980;8.358;2022-12-07T08:55:26;100697.25;;;4.72
72278;BMP280;61204;49.980;8.358;2022-12-07T08:57:54;100701.69;;;4.83
72278;BMP280;61204;49.980;8.358;2022-12-07T09:00:22;100704.63;;;5.13
72278;BMP280;61204;49.980;8.358;2022-12-07T09:02:47;100704.28;;;5.17
72278;BMP280;61204;49.980;8.358;2022-12-07T09:05:13;100699.31;;;5.28
72278;BMP280;61204;49.980;8.358;2022-12-07T09:07:43;100696.78;;;5.31
72278;BMP280;61204;49.980;8.358;2022-12-07T09:10:14;100697.25;;;5.21
72278;BMP280;61204;49.980;8.358;2022-12-07T09:12:40;100697.03;;;5.48
72278;BMP280;61204;49.980;8.358;2022-12-07T09:15:06;100693.59;;;5.47
72278;BMP280;61204;49.980;8.358;2022-12-07T09:17:33;100694.44;;;5.71
72278;BMP280;61204;49.980;8.358;2022-12-07T09:20:00;100702.19;;;5.59
72278;BMP280;61204;49.980;8.358;2022-12-07T09:22:30;100703.16;;;5.69
72278;BMP280;61204;49.980;8.358;2022-12-07T09:25:00;100702.09;;;5.72
72278;BMP280;61204;49.980;8.358;2022-12-07T09:27:27;100700.94;;;5.68
72278;BMP280;61204;49.980;8.358;2022-12-07T09:29:53;100702.72;;;5.58
72278;BMP280;61204;49.980;8.358;2022-12-07T09:32:19;100701.22;;;5.49
72278;BMP280;61204;49.980;8.358;2022-12-07T09:34:45;100704.09;;;5.43
72278;BMP280;61204;49.980;8.358;2022-12-07T09:37:11;100694.19;;;5.53
72278;BMP280;61204;49.980;8.358;2022-12-07T09:39:40;100701.06;;;5.54
72278;BMP280;61204;49.980;8.358;2022-12-07T09:42:07;100713.06;;;5.59
72278;BMP280;61204;49.980;8.358;2022-12-07T09:44:34;100705.19;;;5.76
72278;BMP280;61204;49.980;8.358;2022-12-07T09:47:01;100709.13;;;6.19
72278;BMP280;61204;49.980;8.358;2022-12-07T09:49:30;100709.84;;;6.27
72278;BMP280;61204;49.980;8.358;2022-12-07T09:52:02;100707.34;;;6.45
72278;BMP280;61204;49.980;8.358;2022-12-07T09:54:50;100702.28;;;6.56
72278;BMP280;61204;49.980;8.358;2022-12-07T09:57:17;100699.34;;;6.62
72278;BMP280;61204;49.980;8.358;2022-12-07T09:59:55;100693.19;;;6.69
72278;BMP280;61204;49.980;8.358;2022-12-07T10:05:13;100678.84;;;6.69
72278;BMP280;61204;49.980;8.358;2022-12-07T10:07:43;100683.19;;;6.64
72278;BMP280;61204;49.980;8.358;2022-12-07T10:10:23;100684.13;;;6.67
72278;BMP280;61204;49.980;8.358;2022-12-07T10:13:15;100680.84;;;6.68
72278;BMP280;61204;49.980;8.358;2022-12-07T10:15:55;100676.69;;;6.60
72278;BMP280;61204;49.980;8.358;2022-12-07T10:18:34;100676.47;;;6.50
72278;BMP280;61204;49.980;8.358;2022-12-07T10:21:17;100675.38;;;6.53
72278;BMP280;61204;49.980;8.358;2022-12-07T10:26:37;100666.50;;;6.52
72278;BMP280;61204;49.980;8.358;2022-12-07T10:29:32;100653.94;;;6.49
72278;BMP280;61204;49.980;8.358;2022-12-07T10:32:21;100665.59;;;6.57
72278;BMP280;61204;49.980;8.358;2022-12-07T10:35:30;100675.97;;;7.45
72278;BMP280;61204;49.980;8.358;2022-12-07T10:37:58;100678.06;;;8.52
72278;BMP280;61204;49.980;8.358;2022-12-07T10:40:30;100664.19;;;8.75
72278;BMP280;61204;49.980;8.358;2022-12-07T10:43:05;100656.81;;;9.47
72278;BMP280;61204;49.980;8.358;2022-12-07T10:58:02;100660.91;;;12.17
72278;BMP280;61204;49.980;8.358;2022-12-07T11:00:41;100656.59;;;12.56
72278;BMP280;61204;49.980;8.358;2022-12-07T11:03:41;100661.69;;;12.72
72278;BMP280;61204;49.980;8.358;2022-12-07T11:12:38;100640.09;;;11.42
72278;BMP280;61204;49.980;8.358;2022-12-07T11:15:51;100633.53;;;10.58
72278;BMP280;61204;49.980;8.358;2022-12-07T11:22:37;100632.72;;;9.45
72278;BMP280;61204;49.980;8.358;2022-12-07T11:26:00;100632.13;;;9.64
72278;BMP280;61204;49.980;8.358;2022-12-07T11:35:24;100609.38;;;9.17
72278;BMP280;61204;49.980;8.358;2022-12-07T11:37:59;100614.47;;;9.04
72278;BMP280;61204;49.980;8.358;2022-12-07T11:40:36;100605.22;;;8.99
72278;BMP280;61204;49.980;8.358;2022-12-07T11:43:28;100608.44;;;8.88
72278;BMP280;61204;49.980;8.358;2022-12-07T11:46:04;100602.34;;;8.97
72278;BMP280;61204;49.980;8.358;2022-12-07T11:48:47;100596.06;;;9.04
72278;BMP280;61204;49.980;8.358;2022-12-07T11:51:21;100601.28;;;9.10
72278;BMP280;61204;49.980;8.358;2022-12-07T11:53:52;100590.25;;;9.00
72278;BMP280;61204;49.980;8.358;2022-12-07T11:56:26;100595.69;;;8.90
72278;BMP280;61204;49.980;8.358;2022-12-07T11:58:57;100594.28;;;8.99
72278;BMP280;61204;49.980;8.358;2022-12-07T12:06:52;100580.91;;;10.59
72278;BMP280;61204;49.980;8.358;2022-12-07T12:09:26;100582.47;;;10.43
72278;BMP280;61204;49.980;8.358;2022-12-07T12:15:13;100585.19;;;10.24
72278;BMP280;61204;49.980;8.358;2022-12-07T12:18:17;100575.19;;;9.99
72278;BMP280;61204;49.980;8.358;2022-12-07T12:21:14;100576.94;;;9.31
72278;BMP280;61204;49.980;8.358;2022-12-07T12:23:56;100555.06;;;8.87
72278;BMP280;61204;49.980;8.358;2022-12-07T12:26:31;100576.53;;;8.38
72278;BMP280;61204;49.980;8.358;2022-12-07T12:29:04;100566.97;;;8.30
72278;BMP280;61204;49.980;8.358;2022-12-07T12:31:43;100569.50;;;8.10
72278;BMP280;61204;49.980;8.358;2022-12-07T12:42:57;100551.28;;;10.77
72278;BMP280;61204;49.980;8.358;2022-12-07T12:45:29;100560.06;;;10.95
72278;BMP280;61204;49.980;8.358;2022-12-07T12:50:32;100554.47;;;11.34
72278;BMP280;61204;49.980;8.358;2022-12-07T12:58:43;100545.06;;;9.99
72278;BMP280;61204;49.980;8.358;2022-12-07T13:04:01;100527.81;;;10.45
72278;BMP280;61204;49.980;8.358;2022-12-07T13:06:42;100526.66;;;11.08
72278;BMP280;61204;49.980;8.358;2022-12-07T13:09:19;100528.06;;;11.19
72278;BMP280;61204;49.980;8.358;2022-12-07T13:12:05;100532.56;;;11.55
72278;BMP280;61204;49.980;8.358;2022-12-07T13:14:52;100532.25;;;11.82
72278;BMP280;61204;49.980;8.358;2022-12-07T13:20:05;100527.38;;;11.81
72278;BMP280;61204;49.980;8.358;2022-12-07T13:28:16;100515.19;;;11.53
72278;BMP280;61204;49.980;8.358;2022-12-07T13:30:54;100532.19;;;11.70
72278;BMP280;61204;49.980;8.358;2022-12-07T13:33:35;100520.25;;;11.56
72278;BMP280;61204;49.980;8.358;2022-12-07T13:36:01;100528.03;;;11.60
72278;BMP280;61204;49.980;8.358;2022-12-07T13:38:32;100515.09;;;11.72
72278;BMP280;61204;49.980;8.358;2022-12-07T13:41:14;100519.13;;;11.81
72278;BMP280;61204;49.980;8.358;2022-12-07T13:43:52;100524.34;;;11.77
72278;BMP280;61204;49.980;8.358;2022-12-07T13:46:35;100524.81;;;11.73
72278;BMP280;61204;49.980;8.358;2022-12-07T13:49:49;100517.72;;;11.91
72278;BMP280;61204;49.980;8.358;2022-12-07T13:52:22;100520.66;;;11.84
72278;BMP280;61204;49.980;8.358;2022-12-07T13:54:57;100529.19;;;11.88
72278;BMP280;61204;49.980;8.358;2022-12-07T13:57:26;100526.56;;;11.90
72278;BMP280;61204;49.980;8.358;2022-12-07T13:59:56;100511.06;;;11.42
72278;BMP280;61204;49.980;8.358;2022-12-07T14:02:29;100514.19;;;10.86
72278;BMP280;61204;49.980;8.358;2022-12-07T14:05:33;100509.28;;;9.97
72278;BMP280;61204;49.980;8.358;2022-12-07T14:16:23;100502.59;;;8.54
72278;BMP280;61204;49.980;8.358;2022-12-07T14:19:05;100511.69;;;8.39
72278;BMP280;61204;49.980;8.358;2022-12-07T14:22:20;100513.06;;;8.30
72278;BMP280;61204;49.980;8.358;2022-12-07T14:25:21;100510.13;;;8.28
72278;BMP280;61204;49.980;8.358;2022-12-07T14:28:00;100514.34;;;8.29
72278;BMP280;61204;49.980;8.358;2022-12-07T14:30:29;100520.59;;;8.22
72278;BMP280;61204;49.980;8.358;2022-12-07T14:33:03;100513.19;;;8.15
72278;BMP280;61204;49.980;8.358;2022-12-07T14:35:31;100519.06;;;8.11
72278;BMP280;61204;49.980;8.358;2022-12-07T14:37:58;100520.81;;;7.99
72278;BMP280;61204;49.980;8.358;2022-12-07T14:40:26;100515.25;;;7.89
72278;BMP280;61204;49.980;8.358;2022-12-07T14:43:00;100503.78;;;7.66
72278;BMP280;61204;49.980;8.358;2022-12-07T14:45:34;100514.41;;;7.54
72278;BMP280;61204;49.980;8.358;2022-12-07T14:48:00;100509.56;;;7.70
72278;BMP280;61204;49.980;8.358;2022-12-07T14:50:25;100505.66;;;7.56
72278;BMP280;61204;49.980;8.358;2022-12-07T14:53:13;100498.19;;;7.56
72278;BMP280;61204;49.980;8.358;2022-12-07T14:55:42;100513.03;;;7.46
72278;BMP280;61204;49.980;8.358;2022-12-07T14:58:14;100511.47;;;7.27
72278;BMP280;61204;49.980;8.358;2022-12-07T15:00:43;100508.25;;;7.21
72278;BMP280;61204;49.980;8.358;2022-12-07T15:03:09;100507.38;;;7.11
72278;BMP280;61204;49.980;8.358;2022-12-07T15:05:36;100508.13;;;7.04
72278;BMP280;61204;49.980;8.358;2022-12-07T15:08:03;100512.38;;;6.97
72278;BMP280;61204;49.980;8.358;2022-12-07T15:10:31;100524.72;;;6.91
72278;BMP280;61204;49.980;8.358;2022-12-07T15:13:01;100516.22;;;6.87
72278;BMP280;61204;49.980;8.358;2022-12-07T15:15:48;100520.22;;;6.86
72278;BMP280;61204;49.980;8.358;2022-12-07T15:18:17;100514.78;;;6.78
72278;BMP280;61204;49.980;8.358;2022-12-07T15:20:44;100512.44;;;6.74
72278;BMP280;61204;49.980;8.358;2022-12-07T15:23:11;100507.19;;;6.69
72278;BMP280;61204;49.980;8.358;2022-12-07T15:25:42;100510.09;;;6.63
72278;BMP280;61204;49.980;8.358;2022-12-07T15:28:13;100504.69;;;6.55
72278;BMP280;61204;49.980;8.358;2022-12-07T15:30:41;100502.84;;;6.50
72278;BMP280;61204;49.980;8.358;2022-12-07T15:33:09;100517.63;;;6.47
72278;BMP280;61204;49.980;8.358;2022-12-07T15:35:40;100514.88;;;6.40
72278;BMP280;61204;49.980;8.358;2022-12-07T15:38:09;100509.81;;;6.44
72278;BMP280;61204;49.980;8.358;2022-12-07T15:40:36;100515.28;;;6.28
72278;BMP280;61204;49.980;8.358;2022-12-07T15:43:03;100505.84;;;6.14
72278;BMP280;61204;49.980;8.358;2022-12-07T15:45:29;100503.50;;;5.88
72278;BMP280;61204;49.980;8.358;2022-12-07T15:47:54;100495.47;;;5.67
72278;BMP280;61204;49.980;8.358;2022-12-07T15:50:21;100494.34;;;5.47
72278;BMP280;61204;49.980;8.358;2022-12-07T15:52:48;100494.16;;;5.37
72278;BMP280;61204;49.980;8.358;2022-12-07T15:55:14;100494.09;;;5.29
72278;BMP280;61204;49.980;8.358;2022-12-07T15:57:39;100487.25;;;5.28
72278;BMP280;61204;49.980;8.358;2022-12-07T16:00:07;100483.06;;;5.20
72278;BMP280;61204;49.980;8.358;2022-12-07T16:02:36;100488.84;;;5.16
72278;BMP280;61204;49.980;8.358;2022-12-07T16:05:02;100474.69;;;5.10
72278;BMP280;61204;49.980;8.358;2022-12-07T16:07:29;100467.56;;;4.99
72278;BMP280;61204;49.980;8.358;2022-12-07T16:09:54;100463.59;;;4.93
72278;BMP280;61204;49.980;8.358;2022-12-07T16:12:20;100459.34;;;4.84
72278;BMP280;61204;49.980;8.358;2022-12-07T16:14:46;100449.19;;;4.77
72278;BMP280;61204;49.980;8.358;2022-12-07T16:17:11;100465.09;;;4.73